NATURA VA

 METAR AND TAF INFORMATION
METAR FOR LEBB
ADDS - METARS form results

(1659 UTC 26 March 2019)
Data provider http://aviationweather.gov/metar/data/
 
METAR text: LEBB 261630Z 06009KT 030V100 CAVOK 13/03 Q1028 NOSIG
Conditions at: LEBB (BILBAO/SONDICA , ES) observed 1630 UTC 26 March 2019
Temperature: 13.0°C (55°F)
Dewpoint: 3.0°C (37°F) [RH = 51%]
Pressure (altimeter): 30.35 inches Hg (1028.0 mb)
Winds: from the ENE (60 degrees) at 10 MPH (9 knots; 4.6 m/s)
Visibility: 6 or more miles (10+ km)
Ceiling: ceiling and visibility are OK
Clouds: unknown
Weather: no significant weather observed at this time

METAR text: LEBB 261600Z 06009KT 350V150 CAVOK 14/02 Q1028 NOSIG
Conditions at: LEBB (BILBAO/SONDICA , ES) observed 1600 UTC 26 March 2019
Temperature: 14.0°C (57°F)
Dewpoint: 2.0°C (36°F) [RH = 44%]
Pressure (altimeter): 30.35 inches Hg (1028.0 mb)
Winds: from the ENE (60 degrees) at 10 MPH (9 knots; 4.6 m/s)
Visibility: 6 or more miles (10+ km)
Ceiling: ceiling and visibility are OK
Clouds: unknown
Weather: no significant weather observed at this time

Forecast for: LEBB (BILBAO/SONDICA , ES)
Text: TAF LEBB 261100Z 2612/2712 08009KT CAVOK TX15/2614Z TN05/2706Z
Forecast period: 1200 UTC 26 March 2019 to 1200 UTC 27 March 2019
Forecast type: FROM: standard forecast or significant change
Winds: from the E (80 degrees) at 10 MPH (9 knots; 4.6 m/s)
Visibility: 6 or more miles 10+ km)
Ceiling: unknown
Clouds: missing
Weather: no significant weather forecast for this period

 AIRPORT MAP

 RUNWAY INFORMATION
Runway 10 Runway length 6562 ft Runway width 148 ft
Runway elevation 116 ft Runway displaced threshold 0 ft Runway heading 97
Runway 28 Runway length 6562 ft Runway width 148 ft
Runway elevation 129 ft Runway displaced threshold 0 ft Runway heading 277
Runway 12 Runway length 8530 ft Runway width 148 ft
Runway elevation 119 ft Runway displaced threshold 0 ft Runway heading 117
Runway 30 Runway length 8530 ft Runway width 148 ft
Runway elevation 128 ft Runway displaced threshold 1509 ft Runway heading 297

 AIRPORT FREQUENCIES
Type APP Name APP Frequency 120.7 MHZ
Type ATIS Name ATIS Frequency 118.825 MHZ
Type GND Name GND Frequency 121.7 MHZ
Type TWR Name TWR Frequency 118.5 MHZ

 AIRPORT NEAR NAVIGATION AIDS
Type VOR-DME Name Bilbao Frequency 115900 KHZ



Powered by Virtual Airlines Manager [v2.6.2]